Friday Harbor, WA

5:28 AM PST on March 06, 2015 (GMT -0800)
KWAROCHE5 | Change Station
CLOSE
Current Station
Personal Weather Station
Location: Roche Harbor, WA
Elevation: 200 ft
Nearby Weather Stations

Elev 200 ft 48.61 °N, 123.13 °W | Updated 9 minutes ago

Partly Cloudy
Partly Cloudy
40.5 °F
Feels Like 40 °F
N
0.0
Wind Variable Wind from WSW
Gusts 0.0 mph

Today
High -- | Low -- °F
--% Chance of Precip.
Yesterday
High -- | Low -- °F
Precip. -- in
6:44 AM 6:03 PM
Waxing Gibbous, 99% visible
Pressure 30.42 in
Visibility 10.0 miles
Clouds Clear
Windchill 40 °F
Dew Point 40 °F
Humidity 98%
Rainfall in
Snow Depth Not available.
UV 0 out of 12
Pollen 6.90 out of 12
Air Quality Not available.
Flu Activity Not available.
METAR KFHR 061253Z AUTO VRB03KT 10SM CLR 06/04 A3041 RMK AO2 SLP299 T00560044 $

More Conditions Fewer Conditions

Pressure 30.42 in
Visibility 10.0 miles
Clouds Clear
Windchill 40 °F
Dew Point 40 °F
Humidity 98%
Rainfall in
Snow Depth Not available.
UV 0 out of 12
Pollen 6.90 out of 12
Air Quality Not available.
Flu Activity Not available.
METAR KFHR 061253Z AUTO VRB03KT 10SM CLR 06/04 A3041 RMK AO2 SLP299 T00560044 $

More Conditions Fewer Conditions

10-Day Weather Forecast

Almanac

Astronomy

Mar. 06, 2015 Rise Set
Actual Time
Civil Twilight
Nautical Twilight
Astronomical Twilight
Moon
Length of Visible Light
Length of Day
Tomorrow will be .
, % of the Moon is Illuminated

Today's Extremes

State Highs State Lows

Community

WunderPhotos

Upload Photos

1,803,258 photos uploaded!

WunderBlogs® & News

Nearby

Air Quality

  Air Quality AQ Index Pollutant
Not available.

Snow Depth

Station Depth Elevation

Earthquake Activity

City Distance Mag. Time & Date
Minimum magnitude displayed is 2.5.

Coastal Water Temperatures

Place Temperature

Nearby Weather Stations